Time;durP1;ratioP1;P1;durP2;ratioP2;P2;SDS_P1;SDS_P2;PMS_P1;PMS_P2;Temp;Humidity;BMP_temperature;BMP_pressure;BME280_temperature;BME280_humidity;BME280_pressure;Samples;Min_cycle;Max_cycle;Signal;HPM_P1;HPM_P2
2022/12/18 00:01:05;;;;;;;14.07;9.65;;;;;;;18.19;33.64;102709.66;5021559;28;20037;-71
2022/12/18 00:03:33;;;;;;;16.88;10.05;;;;;;;18.18;33.79;102713.22;5021662;28;20551;-70
2022/12/18 00:05:58;;;;;;;13.98;9.50;;;;;;;18.18;33.41;102711.44;5022536;28;20033;-70
2022/12/18 00:08:23;;;;;;;13.27;8.82;;;;;;;18.18;33.39;102715.88;5022993;28;20382;-70
2022/12/18 00:10:48;;;;;;;13.38;9.80;;;;;;;18.12;33.26;102709.97;5023101;28;20069;-69
2022/12/18 00:13:14;;;;;;;14.55;10.13;;;;;;;18.15;33.20;102716.03;5022695;28;20029;-70
2022/12/18 00:15:39;;;;;;;15.45;10.15;;;;;;;18.13;33.56;102716.97;5023358;28;20047;-69
2022/12/18 00:18:05;;;;;;;12.32;8.93;;;;;;;18.11;33.42;102716.19;5023233;28;20403;-70
2022/12/18 00:20:35;;;;;;;13.60;9.32;;;;;;;18.09;33.34;102712.78;5023216;28;20035;-68
2022/12/18 00:23:00;;;;;;;15.23;10.27;;;;;;;18.06;33.52;102694.47;5023316;28;20057;-68
2022/12/18 00:25:25;;;;;;;15.13;9.73;;;;;;;18.03;33.62;102691.16;5038006;28;20083;-70
2022/12/18 00:27:51;;;;;;;14.45;9.63;;;;;;;18.04;33.39;102683.16;5021532;28;20080;-69
2022/12/18 00:30:16;;;;;;;14.27;9.25;;;;;;;18.04;33.04;102677.00;5023594;28;20084;-70
2022/12/18 00:32:41;;;;;;;13.80;9.50;;;;;;;18.05;33.34;102684.00;5023019;28;20026;-69
2022/12/18 00:35:07;;;;;;;13.93;9.35;;;;;;;18.03;33.42;102681.44;5023761;28;20083;-68
2022/12/18 00:37:35;;;;;;;14.80;9.90;;;;;;;18.01;33.38;102677.16;5037308;28;20077;-71
2022/12/18 00:40:01;;;;;;;15.30;8.98;;;;;;;18.01;33.05;102680.66;5023297;28;20063;-71
2022/12/18 00:45:10;;;;;;;15.18;9.55;;;;;;;17.95;33.14;102670.44;5022015;28;20454;-71
2022/12/18 00:47:35;;;;;;;14.85;9.63;;;;;;;17.97;33.07;102670.34;5037574;28;20457;-69
2022/12/18 00:50:00;;;;;;;12.77;9.57;;;;;;;17.93;32.89;102670.50;5022965;28;20029;-70
2022/12/18 00:52:26;;;;;;;14.82;9.65;;;;;;;17.92;33.14;102673.22;5023539;28;20029;-68
2022/12/18 00:54:51;;;;;;;15.57;9.02;;;;;;;17.89;32.68;102666.31;5023689;28;20120;-69
2022/12/18 00:57:16;;;;;;;15.03;9.50;;;;;;;17.88;32.71;102661.13;5023554;28;20033;-68
2022/12/18 00:59:41;;;;;;;14.07;9.52;;;;;;;17.85;32.71;102669.16;5023618;28;20266;-71
2022/12/18 01:02:07;;;;;;;12.77;9.25;;;;;;;17.82;33.03;102661.44;5023205;28;20112;-71
2022/12/18 01:04:32;;;;;;;13.00;8.52;;;;;;;17.86;32.83;102684.91;5023591;28;20033;-71
2022/12/18 01:06:58;;;;;;;12.25;8.93;;;;;;;17.83;33.06;102676.28;5022500;28;20112;-70
2022/12/18 01:09:23;;;;;;;14.43;9.50;;;;;;;17.83;32.72;102673.66;5021879;28;20125;-71
2022/12/18 01:11:49;;;;;;;15.93;9.40;;;;;;;17.80;32.85;102677.31;5021904;28;20116;-70
2022/12/18 01:14:14;;;;;;;14.98;9.73;;;;;;;17.80;32.82;102685.25;5005109;28;20039;-71
2022/12/18 01:16:40;;;;;;;13.02;9.20;;;;;;;17.77;32.84;102686.22;5021970;28;20385;-69
2022/12/18 01:19:05;;;;;;;14.75;9.63;;;;;;;17.79;32.49;102687.94;5018753;28;20116;-69
2022/12/18 01:21:30;;;;;;;14.43;9.32;;;;;;;17.74;32.67;102691.66;5021231;28;20029;-69
2022/12/18 01:23:57;;;;;;;14.25;8.82;;;;;;;17.76;32.81;102689.78;5021840;28;20389;-70
2022/12/18 01:26:23;;;;;;;14.32;9.05;;;;;;;17.72;32.58;102695.28;5022529;28;20033;-70
2022/12/18 01:28:48;;;;;;;15.65;9.77;;;;;;;17.72;32.58;102697.94;5022321;28;20036;-70
2022/12/18 01:31:19;;;;;;;13.63;9.48;;;;;;;17.68;32.79;102688.50;5021544;28;20034;-71
2022/12/18 01:33:45;;;;;;;15.50;9.23;;;;;;;17.71;32.39;102694.44;5021889;28;20439;-70
2022/12/18 01:36:39;;;;;;;14.25;8.88;;;;;;;17.72;32.76;102695.28;5021661;28;20477;-71
2022/12/18 01:39:11;;;;;;;14.02;9.20;;;;;;;17.64;32.68;102679.88;5011871;28;20120;-70
2022/12/18 01:44:40;;;;;;;;;;;;;;;17.73;32.58;102678.56;5022550;28;20468;-70
2022/12/18 01:47:06;;;;;;;12.50;8.60;;;;;;;17.70;32.48;102691.88;5021877;28;19913;-69
2022/12/18 01:49:31;;;;;;;13.68;9.00;;;;;;;17.65;32.50;102683.38;5021758;28;20026;-70
2022/12/18 01:51:56;;;;;;;14.30;9.07;;;;;;;17.62;32.61;102684.34;5021588;28;20088;-71
2022/12/18 01:54:22;;;;;;;13.63;8.68;;;;;;;17.61;32.76;102687.06;5021295;28;20045;-70
2022/12/18 01:56:47;;;;;;;13.02;9.50;;;;;;;17.61;32.74;102684.44;5021948;28;20029;-69
2022/12/18 01:59:13;;;;;;;14.90;8.88;;;;;;;17.60;32.76;102686.22;5019977;28;20112;-69
2022/12/18 02:01:38;;;;;;;16.77;9.10;;;;;;;17.58;32.61;102685.47;5021485;28;20033;-70
2022/12/18 02:04:23;;;;;;;13.27;8.75;;;;;;;17.58;32.56;102675.75;5020929;28;21261;-69
2022/12/18 02:06:52;;;;;;;;;;;;;;;17.63;32.52;102672.06;5022238;28;20041;-70
2022/12/18 02:09:29;;;;;;;15.38;9.05;;;;;;;17.57;32.31;102674.03;5021649;28;19909;-70
2022/12/18 02:12:21;;;;;;;13.75;8.70;;;;;;;17.56;32.31;102658.31;5019891;28;20068;-70
2022/12/18 02:15:14;;;;;;;13.05;9.13;;;;;;;17.54;32.55;102668.91;5020803;28;20115;-70
2022/12/18 02:17:46;;;;;;;12.00;8.75;;;;;;;17.49;32.48;102675.38;5019470;28;20036;-68
2022/12/18 02:20:19;;;;;;;14.65;9.10;;;;;;;17.50;32.54;102675.28;5021364;28;20115;-71
2022/12/18 02:23:00;;;;;;;14.43;8.85;;;;;;;17.49;32.34;102681.47;5020494;28;20041;-70
2022/12/18 02:26:01;;;;;;;11.02;8.55;;;;;;;17.47;32.33;102672.81;5020690;28;20044;-70
2022/12/18 02:28:31;;;;;;;12.98;8.38;;;;;;;17.46;32.33;102671.09;5020069;28;20029;-69
2022/12/18 02:31:00;;;;;;;12.15;8.48;;;;;;;17.46;32.62;102673.72;5021412;28;20060;-71
2022/12/18 02:33:29;;;;;;;13.48;8.90;;;;;;;17.39;32.56;102664.44;5020266;28;20029;-70
2022/12/18 02:35:57;;;;;;;13.43;8.80;;;;;;;17.45;32.55;102665.88;5020159;28;20111;-70
2022/12/18 02:38:24;;;;;;;14.60;8.93;;;;;;;17.41;32.56;102663.41;5021022;28;20427;-70
2022/12/18 02:40:53;;;;;;;14.60;8.95;;;;;;;17.43;32.49;102659.84;5021368;28;20033;-71
2022/12/18 02:43:18;;;;;;;13.98;8.63;;;;;;;17.39;32.37;102660.00;5020985;28;20025;-71
2022/12/18 02:45:54;;;;;;;13.18;8.18;;;;;;;17.42;32.40;102659.00;5020232;28;20033;-70
2022/12/18 02:48:24;;;;;;;13.07;8.63;;;;;;;17.40;32.37;102655.56;5021175;28;20128;-71
2022/12/18 02:51:08;;;;;;;16.23;8.73;;;;;;;17.39;32.35;102648.63;5020933;28;20033;-71
2022/12/18 02:53:40;;;;;;;14.15;8.27;;;;;;;17.40;32.30;102645.91;5020489;28;20040;-69
2022/12/18 02:56:28;;;;;;;14.80;8.80;;;;;;;17.40;32.83;102643.28;5020879;28;20540;-70
2022/12/18 02:59:42;;;;;;;12.90;8.80;;;;;;;17.42;32.74;102637.94;5019607;28;20086;-70
2022/12/18 03:02:31;;;;;;;11.27;7.72;;;;;;;17.39;32.48;102645.97;5001921;28;20049;-69
2022/12/18 03:05:04;;;;;;;13.25;8.43;;;;;;;17.36;32.74;102641.69;5019239;28;20071;-69
2022/12/18 03:07:41;;;;;;;12.70;8.18;;;;;;;17.37;32.65;102635.50;5020962;28;20033;-69
2022/12/18 03:10:11;;;;;;;11.88;7.70;;;;;;;17.39;32.73;102628.38;5020481;28;20029;-70
2022/12/18 03:12:43;;;;;;;12.55;7.80;;;;;;;17.38;32.30;102621.38;5020694;28;20470;-69
2022/12/18 03:15:14;;;;;;;11.77;7.38;;;;;;;17.39;32.37;102615.19;5020162;28;20371;-70
2022/12/18 03:17:43;;;;;;;12.13;7.05;;;;;;;17.38;32.56;102620.53;5021062;28;20038;-69
2022/12/18 03:20:17;;;;;;;10.25;7.43;;;;;;;17.41;32.89;102625.66;5021231;28;20107;-69
2022/12/18 03:22:46;;;;;;;11.82;7.03;;;;;;;17.39;32.41;102620.47;5023540;28;20047;-71
2022/12/18 03:25:14;;;;;;;12.75;7.15;;;;;;;17.41;32.84;102623.88;5024925;28;20029;-70
2022/12/18 03:27:47;;;;;;;12.25;7.00;;;;;;;17.42;32.68;102624.75;5024650;28;20041;-69
2022/12/18 03:30:14;;;;;;;11.02;6.90;;;;;;;17.38;32.76;102610.84;5024361;28;20057;-69
2022/12/18 03:32:46;;;;;;;11.68;7.13;;;;;;;17.44;33.06;102627.31;5023838;28;20092;-69
2022/12/18 03:35:18;;;;;;;12.80;7.15;;;;;;;17.43;32.68;102626.44;5024546;28;20033;-71
2022/12/18 03:37:43;;;;;;;9.90;6.50;;;;;;;17.45;32.25;102618.44;5024100;28;20049;-71
2022/12/18 03:40:09;;;;;;;11.73;6.63;;;;;;;17.47;32.94;102635.06;5024198;28;20505;-70
2022/12/18 03:42:50;;;;;;;11.90;7.22;;;;;;;17.46;32.70;102631.56;5023884;28;20037;-69
2022/12/18 03:45:30;;;;;;;12.13;7.07;;;;;;;17.47;32.66;102625.34;5024295;28;20033;-70
2022/12/18 03:48:04;;;;;;;12.48;7.60;;;;;;;17.47;32.73;102621.88;5024096;28;20040;-70
2022/12/18 03:50:42;;;;;;;10.73;6.78;;;;;;;17.44;32.84;102617.59;5024508;28;20465;-71
2022/12/18 03:53:32;;;;;;;10.35;6.20;;;;;;;17.47;33.06;102620.09;5024189;28;20079;-70
2022/12/18 03:56:00;;;;;;;10.25;6.68;;;;;;;17.46;32.68;102605.19;5024020;28;20030;-69
2022/12/18 03:58:28;;;;;;;11.10;6.15;;;;;;;17.46;32.86;102596.44;5023902;28;20041;-70
2022/12/18 04:00:57;;;;;;;10.23;6.10;;;;;;;17.44;32.96;102588.63;5023920;28;20120;-70
2022/12/18 04:03:24;;;;;;;10.52;6.43;;;;;;;17.48;32.59;102586.66;5023019;28;20750;-70
2022/12/18 04:05:51;;;;;;;9.38;5.97;;;;;;;17.47;32.83;102583.19;5024420;28;20220;-70
2022/12/18 04:08:17;;;;;;;10.15;6.22;;;;;;;17.46;32.69;102576.19;5024092;28;20476;-69
2022/12/18 04:10:43;;;;;;;8.48;6.32;;;;;;;17.44;32.90;102575.44;5023811;28;20025;-68
2022/12/18 04:13:09;;;;;;;11.55;6.38;;;;;;;17.46;33.01;102570.09;5023855;28;20030;-69
2022/12/18 04:15:36;;;;;;;10.40;6.05;;;;;;;17.45;32.87;102574.50;5023163;28;20065;-70
2022/12/18 04:18:02;;;;;;;11.55;6.35;;;;;;;17.47;32.97;102567.38;5023116;28;20030;-69
2022/12/18 04:20:27;;;;;;;9.60;6.53;;;;;;;17.46;32.97;102562.19;5023757;28;20051;-68
2022/12/18 04:22:52;;;;;;;10.10;6.18;;;;;;;17.49;32.71;102562.03;5022491;28;20083;-70
2022/12/18 04:25:18;;;;;;;10.63;6.53;;;;;;;17.46;32.66;102554.28;5024097;28;20470;-69
2022/12/18 04:27:43;;;;;;;9.55;6.50;;;;;;;17.50;32.93;102569.84;5022885;28;20508;-71
2022/12/18 04:30:09;;;;;;;11.77;6.15;;;;;;;17.48;32.75;102568.22;5023740;28;20060;-70
2022/12/18 04:32:35;;;;;;;11.43;6.45;;;;;;;17.45;32.98;102571.88;5021936;28;20065;-70
2022/12/18 04:35:00;;;;;;;10.77;5.95;;;;;;;17.48;32.94;102570.84;5023854;28;20672;-71
2022/12/18 04:37:25;;;;;;;9.43;6.15;;;;;;;17.49;32.59;102586.59;5022960;28;20061;-70
2022/12/18 04:39:50;;;;;;;9.38;6.30;;;;;;;17.50;32.60;102584.78;5023908;28;20037;-71
2022/12/18 04:42:16;;;;;;;10.63;6.35;;;;;;;17.49;33.00;102591.84;5022888;28;20033;-70
2022/12/18 04:44:41;;;;;;;9.45;6.25;;;;;;;17.49;32.97;102591.84;5023679;28;20059;-71
2022/12/18 04:47:07;;;;;;;10.52;6.50;;;;;;;17.48;32.86;102589.31;5022894;28;20036;-71
2022/12/18 04:49:32;;;;;;;9.70;5.90;;;;;;;17.50;32.43;102601.47;5023512;28;20033;-70
2022/12/18 04:51:58;;;;;;;12.82;6.63;;;;;;;17.50;32.79;102613.78;5023050;28;20029;-70
2022/12/18 04:54:23;;;;;;;11.50;6.93;;;;;;;17.46;32.86;102607.81;5023032;28;20117;-69
2022/12/18 04:56:48;;;;;;;10.90;6.40;;;;;;;17.48;32.67;102613.03;5023618;28;20030;-71
2022/12/18 04:59:14;;;;;;;8.70;5.82;;;;;;;17.45;32.47;102600.88;5022974;28;20337;-70
2022/12/18 05:01:39;;;;;;;11.40;6.55;;;;;;;17.47;32.62;102608.69;5022792;28;20083;-70
2022/12/18 05:04:05;;;;;;;11.23;6.53;;;;;;;17.49;32.69;102612.94;5023012;28;20087;-69
2022/12/18 05:06:30;;;;;;;9.75;5.97;;;;;;;17.47;32.81;102606.06;5022723;28;20214;-71
2022/12/18 05:08:55;;;;;;;8.25;5.72;;;;;;;17.45;32.46;102598.22;5023073;28;20974;-70
2022/12/18 05:11:21;;;;;;;9.00;5.68;;;;;;;17.45;32.46;102614.06;5022465;28;20033;-70
2022/12/18 05:13:46;;;;;;;9.75;6.00;;;;;;;17.45;32.45;102616.69;5022172;28;20048;-70
2022/12/18 05:16:13;;;;;;;8.82;5.78;;;;;;;17.39;32.84;102599.38;5022920;28;20045;-70
2022/12/18 05:18:38;;;;;;;11.10;5.95;;;;;;;17.46;32.52;102607.81;5022365;28;20037;-70
2022/12/18 05:21:04;;;;;;;9.15;5.97;;;;;;;17.47;32.66;102614.81;5020964;28;20037;-68
2022/12/18 05:23:30;;;;;;;9.77;5.90;;;;;;;17.46;32.63;102604.34;5022017;28;20033;-71
2022/12/18 05:26:00;;;;;;;9.63;6.13;;;;;;;17.47;32.59;102611.34;5022923;28;20036;-71
2022/12/18 05:28:28;;;;;;;9.23;5.45;;;;;;;17.48;32.81;102605.13;5022246;28;20041;-71
2022/12/18 05:30:56;;;;;;;10.98;5.60;;;;;;;17.43;32.60;102601.88;5022050;28;20030;-70
2022/12/18 05:33:23;;;;;;;7.90;5.60;;;;;;;17.45;32.61;102600.88;5022276;28;20029;-70
2022/12/18 05:35:52;;;;;;;8.80;6.70;;;;;;;17.46;33.24;102609.63;5021998;28;20103;-70
2022/12/18 05:38:19;;;;;;;10.00;6.00;;;;;;;17.47;33.31;102603.44;5018710;28;20044;-68
2022/12/18 05:40:44;;;;;;;8.82;5.47;;;;;;;17.47;33.75;102591.09;5021464;28;20041;-68
2022/12/18 05:43:10;;;;;;;8.38;4.90;;;;;;;17.55;34.19;102591.56;5020901;28;20036;-70
2022/12/18 05:45:39;;;;;;;8.20;4.57;;;;;;;17.55;34.70;102582.81;5022139;28;20038;-70
2022/12/18 05:48:05;;;;;;;8.70;4.90;;;;;;;17.61;34.70;102584.25;5021539;28;20029;-71
2022/12/18 05:50:30;;;;;;;7.78;4.57;;;;;;;17.64;34.81;102578.81;5021977;28;20036;-70
2022/12/18 05:52:55;;;;;;;7.35;4.30;;;;;;;17.70;35.06;102592.53;5021732;28;20065;-70
2022/12/18 05:55:20;;;;;;;9.93;5.47;;;;;;;17.71;34.88;102585.50;5020334;28;20033;-70
2022/12/18 05:57:46;;;;;;;8.40;4.80;;;;;;;17.75;34.67;102579.97;5021830;28;20441;-69
2022/12/18 06:00:12;;;;;;;8.98;4.53;;;;;;;17.76;34.79;102580.81;5021822;28;20061;-68
2022/12/18 06:02:37;;;;;;;10.70;5.05;;;;;;;17.79;34.92;102582.47;5021690;28;20040;-70
2022/12/18 06:05:02;;;;;;;7.85;4.70;;;;;;;17.84;34.95;102581.28;5021939;28;20068;-71
2022/12/18 06:07:28;;;;;;;8.27;4.22;;;;;;;17.86;34.87;102574.13;5021880;28;20029;-70
2022/12/18 06:09:53;;;;;;;9.27;4.32;;;;;;;17.87;34.77;102575.84;5018956;28;20029;-70
2022/12/18 06:12:18;;;;;;;7.28;3.92;;;;;;;17.91;34.94;102581.81;5021711;28;20069;-69
2022/12/18 06:14:43;;;;;;;7.30;4.20;;;;;;;17.89;34.64;102579.28;5021239;28;20037;-71
2022/12/18 06:17:09;;;;;;;7.65;4.50;;;;;;;17.88;34.97;102582.84;5021381;28;20281;-70
2022/12/18 06:19:34;;;;;;;7.38;3.95;;;;;;;17.93;34.85;102588.75;5021986;28;20366;-71
2022/12/18 06:21:59;;;;;;;6.88;3.83;;;;;;;17.94;34.61;102586.94;5021635;28;20076;-71
2022/12/18 06:24:24;;;;;;;8.00;4.28;;;;;;;17.95;34.96;102588.66;5021086;28;20036;-70
2022/12/18 06:26:50;;;;;;;8.85;4.07;;;;;;;17.95;34.67;102586.84;5021649;28;20040;-70
2022/12/18 06:29:15;;;;;;;8.50;4.70;;;;;;;17.95;34.47;102586.84;5021319;28;20469;-71
2022/12/18 06:31:40;;;;;;;7.32;4.20;;;;;;;17.97;34.43;102588.56;5021043;28;20279;-70
2022/12/18 06:34:06;;;;;;;6.68;3.95;;;;;;;17.94;34.81;102584.31;5020257;28;20026;-70
2022/12/18 06:36:31;;;;;;;8.90;4.18;;;;;;;17.94;34.37;102584.31;5020937;28;20049;-71
2022/12/18 06:38:57;;;;;;;8.45;4.40;;;;;;;17.91;34.42;102577.41;5020983;28;21277;-71
2022/12/18 06:41:22;;;;;;;6.10;3.97;;;;;;;17.93;34.55;102577.34;5021056;28;20041;-70
2022/12/18 06:43:48;;;;;;;7.10;4.35;;;;;;;17.94;34.52;102571.13;5021098;28;20048;-70
2022/12/18 06:46:13;;;;;;;7.18;4.00;;;;;;;17.94;34.09;102568.47;5020660;28;20453;-68
2022/12/18 06:48:39;;;;;;;8.10;4.38;;;;;;;17.96;34.25;102566.63;5021475;28;20041;-70
2022/12/18 06:51:05;;;;;;;7.28;5.05;;;;;;;17.92;34.25;102557.16;5019310;28;20553;-68
2022/12/18 06:53:31;;;;;;;7.75;4.35;;;;;;;17.92;34.11;102563.28;5020813;28;20033;-69
2022/12/18 06:56:01;;;;;;;7.30;4.82;;;;;;;17.89;34.40;102558.16;5019625;28;20436;-70
2022/12/18 06:58:27;;;;;;;6.53;4.13;;;;;;;17.95;34.39;102564.91;5020509;28;20033;-68
2022/12/18 07:00:52;;;;;;;7.45;4.00;;;;;;;17.95;34.22;102565.75;5021116;28;20033;-71
2022/12/18 07:03:18;;;;;;;9.43;4.47;;;;;;;17.95;34.04;102568.41;5021022;28;20041;-70
2022/12/18 07:05:43;;;;;;;7.22;4.13;;;;;;;17.94;34.40;102572.00;5020609;28;20042;-70
2022/12/18 07:08:08;;;;;;;9.85;4.72;;;;;;;17.95;34.33;102562.28;5020163;28;21052;-71
2022/12/18 07:10:40;;;;;;;6.30;3.95;;;;;;;17.95;34.12;102555.19;5021248;28;20037;-70
2022/12/18 07:13:06;;;;;;;7.85;4.22;;;;;;;17.96;34.16;102553.44;5020526;28;20037;-71
2022/12/18 07:15:31;;;;;;;7.80;4.50;;;;;;;17.95;34.53;102542.00;5020222;28;20087;-72
2022/12/18 07:17:56;;;;;;;6.78;4.20;;;;;;;17.97;34.26;102541.09;5020270;28;20033;-71
2022/12/18 07:20:21;;;;;;;8.73;4.75;;;;;;;17.93;34.17;102528.06;5020860;28;20761;-70
2022/12/18 07:22:47;;;;;;;7.88;3.90;;;;;;;17.98;34.32;102532.25;5020693;28;20088;-70
2022/12/18 07:25:12;;;;;;;6.10;3.63;;;;;;;17.93;34.25;102514.03;5020947;28;20048;-72
2022/12/18 07:27:37;;;;;;;7.35;4.05;;;;;;;17.97;34.21;102510.28;5019674;28;20271;-71
2022/12/18 07:30:03;;;;;;;7.40;3.97;;;;;;;17.98;34.00;102506.72;5020294;28;20029;-70
2022/12/18 07:32:30;;;;;;;6.50;4.20;;;;;;;17.96;34.04;102500.69;5002304;28;20116;-69
2022/12/18 07:34:55;;;;;;;7.00;4.07;;;;;;;17.95;34.46;102496.34;5034959;28;20440;-70
2022/12/18 07:37:21;;;;;;;7.53;4.15;;;;;;;17.94;34.38;102494.63;5018558;28;20041;-70
2022/12/18 07:39:46;;;;;;;7.43;4.78;;;;;;;17.94;34.24;102498.13;5018702;28;20037;-69
2022/12/18 07:44:55;;;;;;;7.50;3.92;;;;;;;17.98;34.17;102482.13;5019017;28;20116;-69
2022/12/18 07:47:20;;;;;;;7.20;4.30;;;;;;;17.99;34.15;102483.81;5017714;28;20116;-69
2022/12/18 07:49:46;;;;;;;7.30;3.83;;;;;;;17.99;34.09;102474.13;5018275;28;20040;-67
2022/12/18 07:52:12;;;;;;;6.50;4.22;;;;;;;17.99;34.41;102462.72;5019766;28;20045;-70
2022/12/18 07:54:38;;;;;;;8.30;3.88;;;;;;;18.00;34.25;102470.53;5017509;28;20436;-72
2022/12/18 07:57:03;;;;;;;6.85;4.15;;;;;;;18.02;34.36;102465.19;5020417;28;20045;-69
2022/12/18 07:59:28;;;;;;;8.07;4.22;;;;;;;17.98;34.22;102451.31;5019567;28;20105;-71
2022/12/18 08:01:53;;;;;;;8.27;4.00;;;;;;;17.99;34.14;102450.41;5020375;28;20492;-71
2022/12/18 08:04:19;;;;;;;6.05;3.70;;;;;;;18.03;34.36;102466.91;5019802;28;20152;-69
2022/12/18 08:06:44;;;;;;;8.90;4.27;;;;;;;18.02;34.48;102473.09;5021853;28;20056;-69
2022/12/18 08:09:09;;;;;;;8.15;4.38;;;;;;;18.00;34.61;102473.19;5023898;28;20266;-71
2022/12/18 08:11:35;;;;;;;6.65;3.72;;;;;;;18.00;34.95;102470.53;5024566;28;20489;-69
2022/12/18 08:14:00;;;;;;;6.93;3.72;;;;;;;18.05;34.45;102476.41;5023749;28;20478;-71
2022/12/18 08:16:25;;;;;;;6.93;3.60;;;;;;;18.06;34.67;102472.00;5039124;28;20038;-70
2022/12/18 08:18:52;;;;;;;7.47;3.97;;;;;;;18.04;34.59;102465.94;5023351;28;20033;-71
2022/12/18 08:21:22;;;;;;;6.75;3.85;;;;;;;18.06;34.58;102478.13;5024156;28;20497;-71
2022/12/18 08:23:48;;;;;;;8.23;4.03;;;;;;;18.07;34.33;102482.47;5023293;28;20055;-69
2022/12/18 08:26:14;;;;;;;5.78;3.80;;;;;;;18.07;34.42;102482.47;5023896;28;20458;-70
2022/12/18 08:28:40;;;;;;;7.15;3.70;;;;;;;18.05;34.59;102479.06;5024095;28;20076;-69
2022/12/18 08:31:06;;;;;;;7.20;3.70;;;;;;;18.06;34.74;102480.75;5023074;28;20037;-69
2022/12/18 08:33:31;;;;;;;7.10;3.75;;;;;;;18.03;34.77;102478.28;5023206;28;20096;-70
2022/12/18 08:35:58;;;;;;;6.25;3.88;;;;;;;18.05;34.52;102479.06;5023306;28;20456;-70
2022/12/18 08:38:24;;;;;;;7.95;4.80;;;;;;;18.08;34.28;102484.16;5022688;28;20703;-67
2022/12/18 08:40:49;;;;;;;9.02;4.03;;;;;;;18.10;34.50;102471.75;5023541;28;20510;-69
2022/12/18 08:45:58;;;;;;;6.93;4.13;;;;;;;18.13;34.30;102465.44;5023293;28;20667;-69
2022/12/18 08:48:23;;;;;;;7.90;4.03;;;;;;;18.13;34.79;102454.88;5019428;28;20037;-70
2022/12/18 08:50:56;;;;;;;7.47;4.10;;;;;;;18.11;34.46;102449.69;5019695;28;20037;-70
2022/12/18 08:53:25;;;;;;;7.45;3.85;;;;;;;18.15;34.33;102458.31;5020190;28;20092;-72
2022/12/18 08:55:51;;;;;;;9.95;3.88;;;;;;;18.13;34.49;102457.53;5022273;28;20029;-69
2022/12/18 08:58:16;;;;;;;8.00;4.20;;;;;;;18.12;34.64;102458.47;5022552;28;20032;-68
2022/12/18 09:00:41;;;;;;;11.27;4.80;;;;;;;18.17;34.89;102455.59;5019082;28;20812;-66
2022/12/18 09:03:17;;;;;;;7.57;3.60;;;;;;;18.18;35.18;102450.19;5020754;28;20140;-70
2022/12/18 09:05:43;;;;;;;7.03;3.83;;;;;;;18.20;35.13;102439.56;5023092;28;20613;-68
2022/12/18 09:08:09;;;;;;;8.38;4.13;;;;;;;18.24;35.47;102441.09;5016215;28;20488;-67
2022/12/18 09:10:40;;;;;;;8.20;3.85;;;;;;;18.28;35.34;102464.59;5018196;28;20037;-70
2022/12/18 09:13:06;;;;;;;8.25;4.38;;;;;;;18.31;34.74;102474.97;5021353;28;20478;-70
2022/12/18 09:15:31;;;;;;;8.40;4.28;;;;;;;18.31;35.21;102482.88;5021062;28;20033;-69
2022/12/18 09:17:56;;;;;;;7.68;4.47;;;;;;;18.30;35.06;102480.34;5020567;28;20385;-68
2022/12/18 09:20:22;;;;;;;7.13;4.33;;;;;;;18.34;35.13;102489.78;5021658;28;20037;-67
2022/12/18 09:22:47;;;;;;;10.93;3.92;;;;;;;18.30;35.36;102467.13;5020871;28;20737;-68
2022/12/18 09:25:12;;;;;;;9.13;4.35;;;;;;;18.36;35.18;102476.47;5020676;28;20068;-73
2022/12/18 09:27:39;;;;;;;9.60;4.13;;;;;;;18.39;35.43;102473.66;5020690;28;20029;-73
2022/12/18 09:30:05;;;;;;;7.35;4.10;;;;;;;18.34;35.14;102459.88;5022001;28;20379;-71
2022/12/18 09:32:30;;;;;;;11.32;4.43;;;;;;;18.34;35.71;102452.84;5021654;28;20041;-72
2022/12/18 09:34:55;;;;;;;8.48;4.65;;;;;;;18.32;35.39;102441.50;5021690;28;20056;-72
2022/12/18 09:37:20;;;;;;;8.67;4.33;;;;;;;18.33;35.58;102440.56;5021099;28;20045;-72
2022/12/18 09:39:46;;;;;;;9.18;4.28;;;;;;;18.30;35.98;102440.75;5021064;28;20298;-70
2022/12/18 09:42:22;;;;;;;8.83;4.67;;;;;;;18.33;35.80;102443.22;5021462;28;20400;-70
2022/12/18 09:44:51;;;;;;;7.65;4.32;;;;;;;18.36;35.97;102448.31;5020695;28;20324;-71
2022/12/18 09:47:38;;;;;;;9.35;4.53;;;;;;;18.39;35.90;102448.16;5021408;28;20385;-72
2022/12/18 09:50:17;;;;;;;9.02;4.95;;;;;;;18.37;35.67;102436.81;5021080;28;20136;-70
2022/12/18 09:52:48;;;;;;;8.95;4.80;;;;;;;18.39;36.03;102427.03;5020773;28;20044;-75
2022/12/18 09:55:26;;;;;;;8.02;4.47;;;;;;;18.42;35.83;102421.56;5021239;28;20538;-71
2022/12/18 09:57:56;;;;;;;7.65;4.85;;;;;;;18.43;35.55;102423.25;5020855;28;20036;-65
2022/12/18 10:00:24;;;;;;;10.32;4.43;;;;;;;18.43;35.68;102425.91;5019269;28;20046;-68
2022/12/18 10:02:53;;;;;;;7.72;4.20;;;;;;;18.48;35.62;102437.06;5020754;28;20079;-67
2022/12/18 10:05:34;;;;;;;8.80;4.38;;;;;;;18.51;35.54;102428.09;5018716;28;20108;-68
2022/12/18 10:08:10;;;;;;;8.30;4.50;;;;;;;18.53;35.42;102423.56;5021192;28;20556;-68
2022/12/18 10:10:52;;;;;;;9.13;4.20;;;;;;;18.55;36.10;102436.69;5020166;28;20064;-75
2022/12/18 10:13:29;;;;;;;12.43;4.65;;;;;;;18.54;36.10;102433.19;5018489;28;20033;-75
2022/12/18 10:16:18;;;;;;;9.55;4.60;;;;;;;18.55;36.16;102434.03;5018831;28;20148;-74
2022/12/18 10:18:53;;;;;;;9.65;4.30;;;;;;;18.47;36.31;102424.78;5019143;28;20041;-77
2022/12/18 10:21:39;;;;;;;9.30;4.88;;;;;;;18.51;36.04;102436.03;5014249;28;20033;-73
2022/12/18 10:24:22;;;;;;;9.10;4.60;;;;;;;18.54;36.09;102438.47;5016952;28;20040;-75
2022/12/18 10:26:47;;;;;;;9.15;4.60;;;;;;;18.54;36.10;102419.16;5018294;28;20026;-73
2022/12/18 10:29:15;;;;;;;8.73;4.47;;;;;;;18.53;35.83;102418.28;5018005;28;20128;-73
2022/12/18 10:31:41;;;;;;;8.10;4.18;;;;;;;18.52;35.81;102406.03;5020762;28;20037;-69
2022/12/18 10:34:11;;;;;;;7.47;4.00;;;;;;;18.52;35.95;102399.91;5019605;28;20051;-69
2022/12/18 10:36:36;;;;;;;8.20;4.80;;;;;;;18.51;35.85;102388.50;5018171;28;20619;-74
2022/12/18 10:39:15;;;;;;;8.18;4.30;;;;;;;18.56;35.94;102389.06;5016887;28;20037;-72
2022/12/18 10:41:41;;;;;;;9.73;5.10;;;;;;;18.55;36.06;102389.16;5019409;28;20123;-75
2022/12/18 10:44:18;;;;;;;9.15;4.75;;;;;;;18.53;36.08;102372.56;5019203;28;20084;-74
2022/12/18 10:46:49;;;;;;;7.18;4.43;;;;;;;18.59;36.18;102372.22;5018915;28;20033;-73
2022/12/18 10:49:28;;;;;;;8.95;4.45;;;;;;;18.60;36.10;102380.03;5011411;28;20048;-76
2022/12/18 10:52:20;;;;;;;8.23;4.57;;;;;;;18.64;35.90;102380.69;5020267;28;20036;-72
2022/12/18 10:54:48;;;;;;;8.27;4.88;;;;;;;18.62;36.20;102369.38;5017783;28;20068;-67
2022/12/18 10:57:25;;;;;;;7.50;4.25;;;;;;;18.62;35.67;102366.75;5020076;28;20678;-64
2022/12/18 10:59:54;;;;;;;8.90;5.13;;;;;;;18.70;35.24;102363.66;5019773;28;20129;-70
2022/12/18 11:02:40;;;;;;;7.97;4.57;;;;;;;18.72;35.87;102357.31;5018970;28;20429;-73
2022/12/18 11:05:30;;;;;;;9.23;4.20;;;;;;;18.72;35.79;102352.03;5019379;28;20116;-73
2022/12/18 11:07:56;;;;;;;9.88;4.70;;;;;;;18.71;35.98;102353.00;5020304;28;20033;-73
2022/12/18 11:10:31;;;;;;;7.28;4.15;;;;;;;18.66;35.87;102347.16;5020125;28;20064;-72
2022/12/18 11:13:09;;;;;;;6.93;4.20;;;;;;;18.69;36.22;102360.16;5020274;28;20040;-68
2022/12/18 11:15:35;;;;;;;6.90;4.10;;;;;;;18.66;36.06;102360.34;5020162;28;20172;-74
2022/12/18 11:18:00;;;;;;;9.52;4.70;;;;;;;18.66;36.04;102357.72;5020126;28;20025;-72
2022/12/18 11:20:35;;;;;;;7.40;3.97;;;;;;;18.65;36.38;102356.84;5027323;28;20037;-75
2022/12/18 11:23:04;;;;;;;11.27;4.88;;;;;;;18.66;36.39;102350.63;5013177;28;20985;-72
2022/12/18 11:25:30;;;;;;;10.95;4.63;;;;;;;18.67;36.39;102340.91;5015072;28;20060;-67
2022/12/18 11:27:58;;;;;;;12.20;4.55;;;;;;;18.71;36.13;102329.22;5015260;28;20038;-70
2022/12/18 11:30:26;;;;;;;8.25;4.63;;;;;;;18.80;36.31;102333.09;5015538;28;20033;-68
2022/12/18 11:33:00;;;;;;;9.05;4.50;;;;;;;18.79;36.31;102324.34;5015116;28;20094;-68
2022/12/18 11:35:36;;;;;;;;;;;;;;;18.94;35.99;102330.50;5016094;28;20375;-69
2022/12/18 11:38:16;;;;;;;8.75;5.18;;;;;;;18.88;36.02;102340.59;5016573;28;20296;-70
2022/12/18 11:40:45;;;;;;;6.70;4.30;;;;;;;18.90;36.52;102338.69;5018074;28;20033;-69